sensor_id;sensor_type;location;lat;lon;timestamp;temperature;humidity
16666;DHT22;8446;50.998;6.250;2023-05-20T00:01:27;13.10;99.90
16666;DHT22;8446;50.998;6.250;2023-05-20T00:03:54;13.10;99.90
16666;DHT22;8446;50.998;6.250;2023-05-20T00:06:22;13.00;99.90
16666;DHT22;8446;50.998;6.250;2023-05-20T00:08:50;13.00;99.90
16666;DHT22;8446;50.998;6.250;2023-05-20T00:11:17;13.10;99.90
16666;DHT22;8446;50.998;6.250;2023-05-20T00:13:44;13.00;99.90
16666;DHT22;8446;50.998;6.250;2023-05-20T00:16:11;13.00;99.90
16666;DHT22;8446;50.998;6.250;2023-05-20T00:18:38;13.00;99.90
16666;DHT22;8446;50.998;6.250;2023-05-20T00:21:05;12.90;99.90
16666;DHT22;8446;50.998;6.250;2023-05-20T00:23:33;12.90;99.90
16666;DHT22;8446;50.998;6.250;2023-05-20T00:26:01;12.90;99.90
16666;DHT22;8446;50.998;6.250;2023-05-20T00:28:28;12.90;99.90
16666;DHT22;8446;50.998;6.250;2023-05-20T00:30:55;12.90;99.90
16666;DHT22;8446;50.998;6.250;2023-05-20T00:33:22;12.90;99.90
16666;DHT22;8446;50.998;6.250;2023-05-20T00:35:49;12.90;99.90
16666;DHT22;8446;50.998;6.250;2023-05-20T00:38:16;12.90;99.90
16666;DHT22;8446;50.998;6.250;2023-05-20T00:40:42;12.80;99.90
16666;DHT22;8446;50.998;6.250;2023-05-20T00:43:10;12.80;99.90
16666;DHT22;8446;50.998;6.250;2023-05-20T00:45:38;12.80;99.90
16666;DHT22;8446;50.998;6.250;2023-05-20T00:48:06;12.70;99.90
16666;DHT22;8446;50.998;6.250;2023-05-20T00:50:33;12.70;99.90
16666;DHT22;8446;50.998;6.250;2023-05-20T00:53:00;12.60;99.90
16666;DHT22;8446;50.998;6.250;2023-05-20T00:55:27;12.50;99.90
16666;DHT22;8446;50.998;6.250;2023-05-20T00:57:54;12.40;99.90
16666;DHT22;8446;50.998;6.250;2023-05-20T01:00:22;12.40;99.90
16666;DHT22;8446;50.998;6.250;2023-05-20T01:02:49;12.40;99.90
16666;DHT22;8446;50.998;6.250;2023-05-20T01:05:16;12.40;99.90
16666;DHT22;8446;50.998;6.250;2023-05-20T01:07:43;12.30;99.90
16666;DHT22;8446;50.998;6.250;2023-05-20T01:10:10;12.30;99.90
16666;DHT22;8446;50.998;6.250;2023-05-20T01:12:40;12.30;99.90
16666;DHT22;8446;50.998;6.250;2023-05-20T01:15:09;12.30;99.90
16666;DHT22;8446;50.998;6.250;2023-05-20T01:17:40;12.30;99.90
16666;DHT22;8446;50.998;6.250;2023-05-20T01:20:10;12.30;99.90
16666;DHT22;8446;50.998;6.250;2023-05-20T01:22:39;12.30;99.90
16666;DHT22;8446;50.998;6.250;2023-05-20T01:25:12;12.30;99.90
16666;DHT22;8446;50.998;6.250;2023-05-20T01:27:39;12.30;99.90
16666;DHT22;8446;50.998;6.250;2023-05-20T01:30:07;12.20;99.90
16666;DHT22;8446;50.998;6.250;2023-05-20T01:32:36;12.10;99.90
16666;DHT22;8446;50.998;6.250;2023-05-20T01:35:05;12.10;99.90
16666;DHT22;8446;50.998;6.250;2023-05-20T01:37:34;12.00;99.90
16666;DHT22;8446;50.998;6.250;2023-05-20T01:40:04;12.10;99.90
16666;DHT22;8446;50.998;6.250;2023-05-20T01:42:33;12.00;99.90
16666;DHT22;8446;50.998;6.250;2023-05-20T01:45:00;12.00;99.90
16666;DHT22;8446;50.998;6.250;2023-05-20T01:47:27;12.00;99.90
16666;DHT22;8446;50.998;6.250;2023-05-20T01:49:54;12.00;99.90
16666;DHT22;8446;50.998;6.250;2023-05-20T01:52:21;12.00;99.90
16666;DHT22;8446;50.998;6.250;2023-05-20T01:54:48;11.90;99.90
16666;DHT22;8446;50.998;6.250;2023-05-20T01:57:17;11.90;99.90
16666;DHT22;8446;50.998;6.250;2023-05-20T01:59:45;11.90;99.90
16666;DHT22;8446;50.998;6.250;2023-05-20T02:02:12;11.90;99.90
16666;DHT22;8446;50.998;6.250;2023-05-20T02:04:39;11.90;99.90
16666;DHT22;8446;50.998;6.250;2023-05-20T02:07:06;11.80;99.90
16666;DHT22;8446;50.998;6.250;2023-05-20T02:09:33;11.80;99.90
16666;DHT22;8446;50.998;6.250;2023-05-20T02:12:00;11.80;99.90
16666;DHT22;8446;50.998;6.250;2023-05-20T02:14:28;11.70;99.90
16666;DHT22;8446;50.998;6.250;2023-05-20T02:16:55;11.80;99.90
16666;DHT22;8446;50.998;6.250;2023-05-20T02:19:22;11.70;99.90
16666;DHT22;8446;50.998;6.250;2023-05-20T02:21:49;11.70;99.90
16666;DHT22;8446;50.998;6.250;2023-05-20T02:24:16;11.70;99.90
16666;DHT22;8446;50.998;6.250;2023-05-20T02:26:45;11.60;99.90
16666;DHT22;8446;50.998;6.250;2023-05-20T02:29:13;11.60;99.90
16666;DHT22;8446;50.998;6.250;2023-05-20T02:31:42;11.50;99.90
16666;DHT22;8446;50.998;6.250;2023-05-20T02:34:09;11.50;99.90
16666;DHT22;8446;50.998;6.250;2023-05-20T02:36:36;11.50;99.90
16666;DHT22;8446;50.998;6.250;2023-05-20T02:39:03;11.50;99.90
16666;DHT22;8446;50.998;6.250;2023-05-20T02:41:30;11.50;99.90
16666;DHT22;8446;50.998;6.250;2023-05-20T02:43:56;11.50;99.90
16666;DHT22;8446;50.998;6.250;2023-05-20T02:46:23;11.50;99.90
16666;DHT22;8446;50.998;6.250;2023-05-20T02:48:51;11.50;99.90
16666;DHT22;8446;50.998;6.250;2023-05-20T02:51:18;11.40;99.90
16666;DHT22;8446;50.998;6.250;2023-05-20T02:53:45;11.40;99.90
16666;DHT22;8446;50.998;6.250;2023-05-20T02:56:12;11.30;99.90
16666;DHT22;8446;50.998;6.250;2023-05-20T02:58:39;11.30;99.90
16666;DHT22;8446;50.998;6.250;2023-05-20T03:01:06;11.30;99.90
16666;DHT22;8446;50.998;6.250;2023-05-20T03:03:33;11.30;99.90
16666;DHT22;8446;50.998;6.250;2023-05-20T03:06:04;11.40;99.90
16666;DHT22;8446;50.998;6.250;2023-05-20T03:08:32;11.30;99.90
16666;DHT22;8446;50.998;6.250;2023-05-20T03:10:59;11.30;99.90
16666;DHT22;8446;50.998;6.250;2023-05-20T03:13:26;11.30;99.90
16666;DHT22;8446;50.998;6.250;2023-05-20T03:15:53;11.20;99.90
16666;DHT22;8446;50.998;6.250;2023-05-20T03:18:21;11.20;99.90
16666;DHT22;8446;50.998;6.250;2023-05-20T03:20:47;11.20;99.90
16666;DHT22;8446;50.998;6.250;2023-05-20T03:23:15;11.10;99.90
16666;DHT22;8446;50.998;6.250;2023-05-20T03:25:42;11.10;99.90
16666;DHT22;8446;50.998;6.250;2023-05-20T03:28:09;11.10;99.90
16666;DHT22;8446;50.998;6.250;2023-05-20T03:30:36;11.00;99.90
16666;DHT22;8446;50.998;6.250;2023-05-20T03:33:03;11.00;99.90
16666;DHT22;8446;50.998;6.250;2023-05-20T03:35:30;11.00;99.90
16666;DHT22;8446;50.998;6.250;2023-05-20T03:37:57;11.00;99.90
16666;DHT22;8446;50.998;6.250;2023-05-20T03:40:27;10.90;99.90
16666;DHT22;8446;50.998;6.250;2023-05-20T03:42:54;10.90;99.90
16666;DHT22;8446;50.998;6.250;2023-05-20T03:45:21;10.90;99.90
16666;DHT22;8446;50.998;6.250;2023-05-20T03:47:48;10.90;99.90
16666;DHT22;8446;50.998;6.250;2023-05-20T03:50:15;10.80;99.90
16666;DHT22;8446;50.998;6.250;2023-05-20T03:52:42;10.80;99.90
16666;DHT22;8446;50.998;6.250;2023-05-20T03:55:09;10.70;99.90
16666;DHT22;8446;50.998;6.250;2023-05-20T03:57:37;10.70;99.90
16666;DHT22;8446;50.998;6.250;2023-05-20T04:00:05;10.70;99.90
16666;DHT22;8446;50.998;6.250;2023-05-20T04:02:36;10.70;99.90
16666;DHT22;8446;50.998;6.250;2023-05-20T04:05:04;10.70;99.90
16666;DHT22;8446;50.998;6.250;2023-05-20T04:07:33;10.70;99.90
16666;DHT22;8446;50.998;6.250;2023-05-20T04:10:00;10.60;99.90
16666;DHT22;8446;50.998;6.250;2023-05-20T04:12:27;10.60;99.90
16666;DHT22;8446;50.998;6.250;2023-05-20T04:14:57;10.60;99.90
16666;DHT22;8446;50.998;6.250;2023-05-20T04:17:25;10.70;99.90
16666;DHT22;8446;50.998;6.250;2023-05-20T04:19:54;10.70;99.90
16666;DHT22;8446;50.998;6.250;2023-05-20T04:22:21;10.70;99.90
16666;DHT22;8446;50.998;6.250;2023-05-20T04:24:47;10.80;99.90
16666;DHT22;8446;50.998;6.250;2023-05-20T04:27:14;10.80;99.90
16666;DHT22;8446;50.998;6.250;2023-05-20T04:29:41;10.80;99.90
16666;DHT22;8446;50.998;6.250;2023-05-20T04:32:11;10.90;99.90
16666;DHT22;8446;50.998;6.250;2023-05-20T04:34:38;10.80;99.90
16666;DHT22;8446;50.998;6.250;2023-05-20T04:37:05;10.90;99.90
16666;DHT22;8446;50.998;6.250;2023-05-20T04:39:34;11.00;99.90
16666;DHT22;8446;50.998;6.250;2023-05-20T04:42:01;11.00;99.90
16666;DHT22;8446;50.998;6.250;2023-05-20T04:44:29;11.10;99.90
16666;DHT22;8446;50.998;6.250;2023-05-20T04:46:56;11.20;99.90
16666;DHT22;8446;50.998;6.250;2023-05-20T04:49:25;11.30;99.90
16666;DHT22;8446;50.998;6.250;2023-05-20T04:51:53;11.30;99.90
16666;DHT22;8446;50.998;6.250;2023-05-20T04:54:20;11.30;99.90
16666;DHT22;8446;50.998;6.250;2023-05-20T04:56:47;11.40;99.90
16666;DHT22;8446;50.998;6.250;2023-05-20T04:59:15;11.50;99.90
16666;DHT22;8446;50.998;6.250;2023-05-20T05:01:42;11.50;99.90
16666;DHT22;8446;50.998;6.250;2023-05-20T05:04:09;11.50;99.90
16666;DHT22;8446;50.998;6.250;2023-05-20T05:06:37;11.60;99.90
16666;DHT22;8446;50.998;6.250;2023-05-20T05:09:04;11.60;99.90
16666;DHT22;8446;50.998;6.250;2023-05-20T05:11:30;11.70;99.90
16666;DHT22;8446;50.998;6.250;2023-05-20T05:13:57;11.80;99.90
16666;DHT22;8446;50.998;6.250;2023-05-20T05:16:24;11.80;99.90
16666;DHT22;8446;50.998;6.250;2023-05-20T05:18:51;11.90;99.90
16666;DHT22;8446;50.998;6.250;2023-05-20T05:21:18;12.00;99.90
16666;DHT22;8446;50.998;6.250;2023-05-20T05:23:46;12.10;99.90
16666;DHT22;8446;50.998;6.250;2023-05-20T05:26:13;12.10;99.90
16666;DHT22;8446;50.998;6.250;2023-05-20T05:28:41;12.20;99.90
16666;DHT22;8446;50.998;6.250;2023-05-20T05:31:08;12.30;99.90
16666;DHT22;8446;50.998;6.250;2023-05-20T05:33:35;12.30;99.90
16666;DHT22;8446;50.998;6.250;2023-05-20T05:36:02;12.30;99.90
16666;DHT22;8446;50.998;6.250;2023-05-20T05:38:31;12.40;99.90
16666;DHT22;8446;50.998;6.250;2023-05-20T05:40:59;12.40;99.90
16666;DHT22;8446;50.998;6.250;2023-05-20T05:43:26;12.50;99.90
16666;DHT22;8446;50.998;6.250;2023-05-20T05:45:53;12.50;99.90
16666;DHT22;8446;50.998;6.250;2023-05-20T05:48:20;12.60;99.90
16666;DHT22;8446;50.998;6.250;2023-05-20T05:50:47;12.70;99.90
16666;DHT22;8446;50.998;6.250;2023-05-20T05:53:14;12.80;99.90
16666;DHT22;8446;50.998;6.250;2023-05-20T05:55:41;12.90;99.90
16666;DHT22;8446;50.998;6.250;2023-05-20T05:58:09;13.00;99.90
16666;DHT22;8446;50.998;6.250;2023-05-20T06:00:36;13.00;99.90
16666;DHT22;8446;50.998;6.250;2023-05-20T06:03:03;13.10;99.90
16666;DHT22;8446;50.998;6.250;2023-05-20T06:05:30;13.20;99.90
16666;DHT22;8446;50.998;6.250;2023-05-20T06:07:57;13.30;99.90
16666;DHT22;8446;50.998;6.250;2023-05-20T06:10:24;13.30;99.90
16666;DHT22;8446;50.998;6.250;2023-05-20T06:12:51;13.30;99.90
16666;DHT22;8446;50.998;6.250;2023-05-20T06:15:20;13.50;99.90
16666;DHT22;8446;50.998;6.250;2023-05-20T06:17:47;13.50;99.90
16666;DHT22;8446;50.998;6.250;2023-05-20T06:20:14;13.70;99.90
16666;DHT22;8446;50.998;6.250;2023-05-20T06:22:41;13.80;99.90
16666;DHT22;8446;50.998;6.250;2023-05-20T06:25:09;14.00;99.90
16666;DHT22;8446;50.998;6.250;2023-05-20T06:27:36;14.10;99.90
16666;DHT22;8446;50.998;6.250;2023-05-20T06:30:04;14.20;99.90
16666;DHT22;8446;50.998;6.250;2023-05-20T06:32:33;14.20;99.90
16666;DHT22;8446;50.998;6.250;2023-05-20T06:34:59;14.30;99.90
16666;DHT22;8446;50.998;6.250;2023-05-20T06:37:26;14.30;99.90
16666;DHT22;8446;50.998;6.250;2023-05-20T06:39:53;14.40;99.90
16666;DHT22;8446;50.998;6.250;2023-05-20T06:42:20;14.60;99.90
16666;DHT22;8446;50.998;6.250;2023-05-20T06:44:47;14.80;99.90
16666;DHT22;8446;50.998;6.250;2023-05-20T06:47:15;14.90;99.90
16666;DHT22;8446;50.998;6.250;2023-05-20T06:49:44;15.10;99.90
16666;DHT22;8446;50.998;6.250;2023-05-20T06:52:11;15.10;99.90
16666;DHT22;8446;50.998;6.250;2023-05-20T06:54:38;15.20;99.90
16666;DHT22;8446;50.998;6.250;2023-05-20T06:57:06;15.40;99.90
16666;DHT22;8446;50.998;6.250;2023-05-20T06:59:34;15.50;99.90
16666;DHT22;8446;50.998;6.250;2023-05-20T07:02:01;15.60;99.90
16666;DHT22;8446;50.998;6.250;2023-05-20T07:04:28;15.70;99.90
16666;DHT22;8446;50.998;6.250;2023-05-20T07:06:57;15.70;99.90
16666;DHT22;8446;50.998;6.250;2023-05-20T07:09:23;15.70;99.90
16666;DHT22;8446;50.998;6.250;2023-05-20T07:11:50;15.80;99.90
16666;DHT22;8446;50.998;6.250;2023-05-20T07:14:17;15.80;99.90
16666;DHT22;8446;50.998;6.250;2023-05-20T07:16:44;16.00;99.90
16666;DHT22;8446;50.998;6.250;2023-05-20T07:19:10;16.10;99.90
16666;DHT22;8446;50.998;6.250;2023-05-20T07:21:37;16.00;99.90
16666;DHT22;8446;50.998;6.250;2023-05-20T07:24:06;15.80;99.90
16666;DHT22;8446;50.998;6.250;2023-05-20T07:26:33;15.80;99.90
16666;DHT22;8446;50.998;6.250;2023-05-20T07:29:01;15.70;99.90
16666;DHT22;8446;50.998;6.250;2023-05-20T07:31:29;15.60;99.90
16666;DHT22;8446;50.998;6.250;2023-05-20T07:33:56;15.70;99.90
16666;DHT22;8446;50.998;6.250;2023-05-20T07:36:25;15.80;99.90
16666;DHT22;8446;50.998;6.250;2023-05-20T07:38:52;15.80;99.90
16666;DHT22;8446;50.998;6.250;2023-05-20T07:41:20;15.80;99.90
16666;DHT22;8446;50.998;6.250;2023-05-20T07:43:47;15.80;99.90
16666;DHT22;8446;50.998;6.250;2023-05-20T07:46:14;15.90;99.90
16666;DHT22;8446;50.998;6.250;2023-05-20T07:48:41;16.00;99.90
16666;DHT22;8446;50.998;6.250;2023-05-20T07:51:10;16.00;99.90
16666;DHT22;8446;50.998;6.250;2023-05-20T07:53:37;16.10;99.90
16666;DHT22;8446;50.998;6.250;2023-05-20T07:56:05;16.20;99.90
16666;DHT22;8446;50.998;6.250;2023-05-20T07:58:34;16.30;99.90
16666;DHT22;8446;50.998;6.250;2023-05-20T08:01:00;16.50;99.90
16666;DHT22;8446;50.998;6.250;2023-05-20T08:03:27;16.70;99.90
16666;DHT22;8446;50.998;6.250;2023-05-20T08:05:54;16.70;99.90
16666;DHT22;8446;50.998;6.250;2023-05-20T08:08:21;16.70;99.90
16666;DHT22;8446;50.998;6.250;2023-05-20T08:10:49;16.80;99.90
16666;DHT22;8446;50.998;6.250;2023-05-20T08:13:16;17.00;99.90
16666;DHT22;8446;50.998;6.250;2023-05-20T08:15:45;17.00;99.90
16666;DHT22;8446;50.998;6.250;2023-05-20T08:18:13;17.10;99.90
16666;DHT22;8446;50.998;6.250;2023-05-20T08:20:40;17.20;99.90
16666;DHT22;8446;50.998;6.250;2023-05-20T08:23:07;17.30;99.90
16666;DHT22;8446;50.998;6.250;2023-05-20T08:25:34;17.50;99.90
16666;DHT22;8446;50.998;6.250;2023-05-20T08:28:02;17.40;99.90
16666;DHT22;8446;50.998;6.250;2023-05-20T08:30:31;17.40;99.90
16666;DHT22;8446;50.998;6.250;2023-05-20T08:33:00;17.40;99.90
16666;DHT22;8446;50.998;6.250;2023-05-20T08:35:27;17.40;99.90
16666;DHT22;8446;50.998;6.250;2023-05-20T08:37:54;17.60;99.90
16666;DHT22;8446;50.998;6.250;2023-05-20T08:40:21;17.90;99.90
16666;DHT22;8446;50.998;6.250;2023-05-20T08:42:50;18.20;99.90
16666;DHT22;8446;50.998;6.250;2023-05-20T08:45:18;18.40;99.90
16666;DHT22;8446;50.998;6.250;2023-05-20T08:47:45;18.40;99.90
16666;DHT22;8446;50.998;6.250;2023-05-20T08:50:15;18.20;99.90
16666;DHT22;8446;50.998;6.250;2023-05-20T08:52:42;18.30;99.90
16666;DHT22;8446;50.998;6.250;2023-05-20T08:55:13;18.40;99.90
16666;DHT22;8446;50.998;6.250;2023-05-20T08:57:41;18.60;99.90
16666;DHT22;8446;50.998;6.250;2023-05-20T09:00:11;18.90;99.90
16666;DHT22;8446;50.998;6.250;2023-05-20T09:02:41;19.00;99.90
16666;DHT22;8446;50.998;6.250;2023-05-20T09:05:09;19.20;99.90
16666;DHT22;8446;50.998;6.250;2023-05-20T09:07:38;19.10;99.90
16666;DHT22;8446;50.998;6.250;2023-05-20T09:10:07;19.00;99.90
16666;DHT22;8446;50.998;6.250;2023-05-20T09:12:35;19.20;99.90
16666;DHT22;8446;50.998;6.250;2023-05-20T09:15:02;19.50;99.90
16666;DHT22;8446;50.998;6.250;2023-05-20T09:17:29;19.40;99.90
16666;DHT22;8446;50.998;6.250;2023-05-20T09:19:56;19.30;99.90
16666;DHT22;8446;50.998;6.250;2023-05-20T09:22:23;19.60;99.90
16666;DHT22;8446;50.998;6.250;2023-05-20T09:24:52;19.90;99.90
16666;DHT22;8446;50.998;6.250;2023-05-20T09:27:18;20.30;99.90
16666;DHT22;8446;50.998;6.250;2023-05-20T09:29:46;20.20;99.90
16666;DHT22;8446;50.998;6.250;2023-05-20T09:32:13;20.30;99.90
16666;DHT22;8446;50.998;6.250;2023-05-20T09:34:41;20.10;99.90
16666;DHT22;8446;50.998;6.250;2023-05-20T09:37:10;20.20;99.90
16666;DHT22;8446;50.998;6.250;2023-05-20T09:39:43;20.30;99.90
16666;DHT22;8446;50.998;6.250;2023-05-20T09:42:19;20.50;99.90
16666;DHT22;8446;50.998;6.250;2023-05-20T09:44:49;20.40;99.90
16666;DHT22;8446;50.998;6.250;2023-05-20T09:47:17;20.60;99.90
16666;DHT22;8446;50.998;6.250;2023-05-20T09:49:45;21.00;99.90
16666;DHT22;8446;50.998;6.250;2023-05-20T09:52:13;21.00;99.90
16666;DHT22;8446;50.998;6.250;2023-05-20T09:54:41;21.00;99.90
16666;DHT22;8446;50.998;6.250;2023-05-20T09:57:11;21.00;99.90
16666;DHT22;8446;50.998;6.250;2023-05-20T09:59:40;21.20;99.90
16666;DHT22;8446;50.998;6.250;2023-05-20T10:02:07;21.50;99.90
16666;DHT22;8446;50.998;6.250;2023-05-20T10:04:37;21.50;99.90
16666;DHT22;8446;50.998;6.250;2023-05-20T10:07:22;21.60;99.90
16666;DHT22;8446;50.998;6.250;2023-05-20T10:09:59;21.70;99.90
16666;DHT22;8446;50.998;6.250;2023-05-20T10:12:33;21.60;99.90
16666;DHT22;8446;50.998;6.250;2023-05-20T10:15:12;21.80;99.90
16666;DHT22;8446;50.998;6.250;2023-05-20T10:17:45;21.90;99.90
16666;DHT22;8446;50.998;6.250;2023-05-20T10:20:16;21.70;99.90
16666;DHT22;8446;50.998;6.250;2023-05-20T10:22:43;22.10;99.90
16666;DHT22;8446;50.998;6.250;2023-05-20T10:25:23;22.50;99.90
16666;DHT22;8446;50.998;6.250;2023-05-20T10:27:51;23.10;99.90
16666;DHT22;8446;50.998;6.250;2023-05-20T10:30:20;23.20;99.90
16666;DHT22;8446;50.998;6.250;2023-05-20T10:32:50;23.40;99.90
16666;DHT22;8446;50.998;6.250;2023-05-20T10:35:21;23.60;99.90
16666;DHT22;8446;50.998;6.250;2023-05-20T10:37:51;23.80;99.90
16666;DHT22;8446;50.998;6.250;2023-05-20T10:40:19;23.40;99.90
16666;DHT22;8446;50.998;6.250;2023-05-20T10:42:46;23.60;99.90
16666;DHT22;8446;50.998;6.250;2023-05-20T10:45:25;23.50;99.90
16666;DHT22;8446;50.998;6.250;2023-05-20T10:47:53;23.10;99.90
16666;DHT22;8446;50.998;6.250;2023-05-20T10:50:32;23.00;99.90
16666;DHT22;8446;50.998;6.250;2023-05-20T10:53:03;22.70;99.90
16666;DHT22;8446;50.998;6.250;2023-05-20T10:55:35;22.70;99.90
16666;DHT22;8446;50.998;6.250;2023-05-20T10:58:03;22.90;99.90
16666;DHT22;8446;50.998;6.250;2023-05-20T11:00:33;23.10;99.90
16666;DHT22;8446;50.998;6.250;2023-05-20T11:03:00;23.10;99.90
16666;DHT22;8446;50.998;6.250;2023-05-20T11:05:28;23.20;99.90
16666;DHT22;8446;50.998;6.250;2023-05-20T11:08:00;22.90;99.90
16666;DHT22;8446;50.998;6.250;2023-05-20T11:10:28;22.90;99.90
16666;DHT22;8446;50.998;6.250;2023-05-20T11:12:55;23.50;99.90
16666;DHT22;8446;50.998;6.250;2023-05-20T11:15:22;23.70;99.90
16666;DHT22;8446;50.998;6.250;2023-05-20T11:17:55;23.70;99.90
16666;DHT22;8446;50.998;6.250;2023-05-20T11:20:23;23.70;99.90
16666;DHT22;8446;50.998;6.250;2023-05-20T11:22:50;23.60;99.90
16666;DHT22;8446;50.998;6.250;2023-05-20T11:25:17;23.80;99.90
16666;DHT22;8446;50.998;6.250;2023-05-20T11:27:45;23.70;99.90
16666;DHT22;8446;50.998;6.250;2023-05-20T11:30:13;23.50;99.90
16666;DHT22;8446;50.998;6.250;2023-05-20T11:32:41;23.40;99.90
16666;DHT22;8446;50.998;6.250;2023-05-20T11:35:20;23.00;99.90
16666;DHT22;8446;50.998;6.250;2023-05-20T11:37:53;23.30;99.90
16666;DHT22;8446;50.998;6.250;2023-05-20T11:40:23;23.00;99.90
16666;DHT22;8446;50.998;6.250;2023-05-20T11:42:55;23.40;99.90
16666;DHT22;8446;50.998;6.250;2023-05-20T11:45:23;23.60;99.90
16666;DHT22;8446;50.998;6.250;2023-05-20T11:48:00;23.50;99.90
16666;DHT22;8446;50.998;6.250;2023-05-20T11:50:33;23.70;99.90
16666;DHT22;8446;50.998;6.250;2023-05-20T11:53:01;23.80;99.90
16666;DHT22;8446;50.998;6.250;2023-05-20T11:55:30;23.80;99.90
16666;DHT22;8446;50.998;6.250;2023-05-20T11:57:59;23.90;99.90
16666;DHT22;8446;50.998;6.250;2023-05-20T12:00:26;23.90;99.90
16666;DHT22;8446;50.998;6.250;2023-05-20T12:02:53;24.20;99.90
16666;DHT22;8446;50.998;6.250;2023-05-20T12:05:21;23.90;99.90
16666;DHT22;8446;50.998;6.250;2023-05-20T12:07:50;24.00;99.90
16666;DHT22;8446;50.998;6.250;2023-05-20T12:10:16;24.00;99.90
16666;DHT22;8446;50.998;6.250;2023-05-20T12:12:43;24.50;99.90
16666;DHT22;8446;50.998;6.250;2023-05-20T12:15:11;24.50;99.90
16666;DHT22;8446;50.998;6.250;2023-05-20T12:17:47;24.10;99.90
16666;DHT22;8446;50.998;6.250;2023-05-20T12:20:15;23.70;99.90
16666;DHT22;8446;50.998;6.250;2023-05-20T12:22:43;23.60;99.90
16666;DHT22;8446;50.998;6.250;2023-05-20T12:25:12;23.60;99.90
16666;DHT22;8446;50.998;6.250;2023-05-20T12:27:40;23.10;99.90
16666;DHT22;8446;50.998;6.250;2023-05-20T12:30:08;23.40;99.90
16666;DHT22;8446;50.998;6.250;2023-05-20T12:32:35;23.30;99.90
16666;DHT22;8446;50.998;6.250;2023-05-20T12:35:02;23.10;99.90
16666;DHT22;8446;50.998;6.250;2023-05-20T12:37:29;22.60;99.90
16666;DHT22;8446;50.998;6.250;2023-05-20T12:39:55;22.70;99.90
16666;DHT22;8446;50.998;6.250;2023-05-20T12:42:24;23.20;99.90
16666;DHT22;8446;50.998;6.250;2023-05-20T12:44:51;23.20;99.90
16666;DHT22;8446;50.998;6.250;2023-05-20T12:47:19;23.90;99.90
16666;DHT22;8446;50.998;6.250;2023-05-20T12:49:46;24.20;99.90
16666;DHT22;8446;50.998;6.250;2023-05-20T12:52:12;24.70;99.90
16666;DHT22;8446;50.998;6.250;2023-05-20T12:54:39;24.90;99.90
16666;DHT22;8446;50.998;6.250;2023-05-20T12:57:06;24.60;99.90
16666;DHT22;8446;50.998;6.250;2023-05-20T12:59:34;24.60;99.90
16666;DHT22;8446;50.998;6.250;2023-05-20T13:02:02;25.50;99.90
16666;DHT22;8446;50.998;6.250;2023-05-20T13:04:29;26.10;99.90
16666;DHT22;8446;50.998;6.250;2023-05-20T13:06:56;26.50;99.90
16666;DHT22;8446;50.998;6.250;2023-05-20T13:09:24;26.50;99.50
16666;DHT22;8446;50.998;6.250;2023-05-20T13:11:51;26.60;99.90
16666;DHT22;8446;50.998;6.250;2023-05-20T13:14:18;26.80;99.20
16666;DHT22;8446;50.998;6.250;2023-05-20T13:16:49;26.60;98.20
16666;DHT22;8446;50.998;6.250;2023-05-20T13:19:19;26.00;98.90
16666;DHT22;8446;50.998;6.250;2023-05-20T13:21:47;26.20;98.90
16666;DHT22;8446;50.998;6.250;2023-05-20T13:24:14;26.60;98.90
16666;DHT22;8446;50.998;6.250;2023-05-20T13:26:41;27.00;97.80
16666;DHT22;8446;50.998;6.250;2023-05-20T13:29:08;26.80;98.40
16666;DHT22;8446;50.998;6.250;2023-05-20T13:31:35;27.20;97.00
16666;DHT22;8446;50.998;6.250;2023-05-20T13:34:05;26.70;98.40
16666;DHT22;8446;50.998;6.250;2023-05-20T13:36:32;25.80;99.10
16666;DHT22;8446;50.998;6.250;2023-05-20T13:38:59;25.70;98.80
16666;DHT22;8446;50.998;6.250;2023-05-20T13:41:25;25.40;99.90
16666;DHT22;8446;50.998;6.250;2023-05-20T13:43:52;25.80;99.30
16666;DHT22;8446;50.998;6.250;2023-05-20T13:46:19;26.50;96.50
16666;DHT22;8446;50.998;6.250;2023-05-20T13:48:47;27.00;98.60
16666;DHT22;8446;50.998;6.250;2023-05-20T13:51:15;26.60;97.60
16666;DHT22;8446;50.998;6.250;2023-05-20T13:53:42;26.70;97.70
16666;DHT22;8446;50.998;6.250;2023-05-20T13:56:09;26.70;97.90
16666;DHT22;8446;50.998;6.250;2023-05-20T13:58:36;25.90;99.00
16666;DHT22;8446;50.998;6.250;2023-05-20T14:01:03;25.10;98.70
16666;DHT22;8446;50.998;6.250;2023-05-20T14:03:30;25.10;97.90
16666;DHT22;8446;50.998;6.250;2023-05-20T14:05:58;24.80;99.80
16666;DHT22;8446;50.998;6.250;2023-05-20T14:08:27;24.20;99.90
16666;DHT22;8446;50.998;6.250;2023-05-20T14:10:54;23.70;99.90
16666;DHT22;8446;50.998;6.250;2023-05-20T14:13:21;23.60;99.90
16666;DHT22;8446;50.998;6.250;2023-05-20T14:15:48;23.60;99.90
16666;DHT22;8446;50.998;6.250;2023-05-20T14:18:16;23.00;99.90
16666;DHT22;8446;50.998;6.250;2023-05-20T14:20:42;22.50;99.90
16666;DHT22;8446;50.998;6.250;2023-05-20T14:23:10;22.30;99.90
16666;DHT22;8446;50.998;6.250;2023-05-20T14:25:39;22.30;99.90
16666;DHT22;8446;50.998;6.250;2023-05-20T14:28:06;22.00;99.90
16666;DHT22;8446;50.998;6.250;2023-05-20T14:30:33;21.80;99.90
16666;DHT22;8446;50.998;6.250;2023-05-20T14:33:00;21.60;99.90
16666;DHT22;8446;50.998;6.250;2023-05-20T14:35:27;21.90;99.90
16666;DHT22;8446;50.998;6.250;2023-05-20T14:37:54;21.80;99.90
16666;DHT22;8446;50.998;6.250;2023-05-20T14:40:21;21.80;99.90
16666;DHT22;8446;50.998;6.250;2023-05-20T14:42:49;21.80;99.90
16666;DHT22;8446;50.998;6.250;2023-05-20T14:45:16;21.70;99.90
16666;DHT22;8446;50.998;6.250;2023-05-20T14:47:43;21.50;99.90
16666;DHT22;8446;50.998;6.250;2023-05-20T14:50:11;21.40;99.90
16666;DHT22;8446;50.998;6.250;2023-05-20T14:52:38;21.40;99.90
16666;DHT22;8446;50.998;6.250;2023-05-20T14:55:05;21.40;99.90
16666;DHT22;8446;50.998;6.250;2023-05-20T14:57:32;21.30;99.90
16666;DHT22;8446;50.998;6.250;2023-05-20T15:00:00;21.20;99.90
16666;DHT22;8446;50.998;6.250;2023-05-20T15:02:27;21.20;99.90
16666;DHT22;8446;50.998;6.250;2023-05-20T15:04:54;21.30;99.90
16666;DHT22;8446;50.998;6.250;2023-05-20T15:07:21;21.40;99.90
16666;DHT22;8446;50.998;6.250;2023-05-20T15:09:47;21.10;99.90
16666;DHT22;8446;50.998;6.250;2023-05-20T15:12:14;21.10;99.90
16666;DHT22;8446;50.998;6.250;2023-05-20T15:14:41;21.20;99.90
16666;DHT22;8446;50.998;6.250;2023-05-20T15:17:09;21.30;99.90
16666;DHT22;8446;50.998;6.250;2023-05-20T15:19:36;21.30;99.90
16666;DHT22;8446;50.998;6.250;2023-05-20T15:22:04;20.90;99.90
16666;DHT22;8446;50.998;6.250;2023-05-20T15:24:31;20.80;99.90
16666;DHT22;8446;50.998;6.250;2023-05-20T15:26:57;20.90;99.90
16666;DHT22;8446;50.998;6.250;2023-05-20T15:29:24;20.80;99.90
16666;DHT22;8446;50.998;6.250;2023-05-20T15:31:51;20.50;99.90
16666;DHT22;8446;50.998;6.250;2023-05-20T15:34:19;20.60;99.90
16666;DHT22;8446;50.998;6.250;2023-05-20T15:36:46;20.50;99.90
16666;DHT22;8446;50.998;6.250;2023-05-20T15:39:13;20.50;99.90
16666;DHT22;8446;50.998;6.250;2023-05-20T15:41:40;20.70;99.90
16666;DHT22;8446;50.998;6.250;2023-05-20T15:44:07;20.60;99.90
16666;DHT22;8446;50.998;6.250;2023-05-20T15:46:35;20.30;99.90
16666;DHT22;8446;50.998;6.250;2023-05-20T15:49:02;20.40;99.90